CheckWX is a tool to help pilots better visualize weather data.  It is not intended as a substitute for an official pre-flight weather briefing.

18:10:10 UTC

KONT METAR
Ontario International Airport
Ontario, California, USA
Current

17 mins ago

KONT 241753Z 25005KT 9SM FEW250 26/12 A3001 RMK AO2 SLP148 T02610117 10267 20161 51001
Observed
Apr-24 @ 17:53 UTC
Wind
  • 250° at 5 KTS
Visibility
9 SM
Flight Rules
VFR
Cloud Levels
  • Few at 25,000' AGL
Temperature
26°C / 79°F
Dewpoint
12°C / 54°F
Humidity
42%
Altimeter
30.01" Hg
Pressure
1016.22 hPa
Previous

1 hour ago

KONT 241653Z 00000KT 9SM FEW250 24/12 A3001 RMK AO2 SLP150 T02390117
Observed
Apr-24 @ 16:53 UTC
Visibility
9 SM
Flight Rules
VFR
Cloud Levels
  • Few at 25,000' AGL
Temperature
24°C / 75°F
Dewpoint
12°C / 54°F
Humidity
47%
Altimeter
30.01" Hg
Pressure
1016.22 hPa
Previous

2 hours ago

KONT 241553Z VRB03KT 7SM FEW250 21/12 A3001 RMK AO2 SLP150 HAZY T02110122
Observed
Apr-24 @ 15:53 UTC
Wind
  • Variable at 3 KTS
Visibility
7 SM
Flight Rules
VFR
Cloud Levels
  • Few at 25,000' AGL
Temperature
21°C / 70°F
Dewpoint
12°C / 54°F
Humidity
57%
Altimeter
30.01" Hg
Pressure
1016.22 hPa